Time;durP1;ratioP1;P1;durP2;ratioP2;P2;SDS_P1;SDS_P2;PMS_P1;PMS_P2;Temp;Humidity;BMP_temperature;BMP_pressure;BME280_temperature;BME280_humidity;BME280_pressure;Samples;Min_cycle;Max_cycle;Signal;HPM_P1;HPM_P2
2023/10/17 00:01:47;;;;;;;4.55;2.65;;;3.50;99.90;;;;;;5032995;28;20105;-73
2023/10/17 00:06:45;;;;;;;4.95;2.50;;;3.40;99.90;;;;;;5033303;28;20034;-73
2023/10/17 00:09:26;;;;;;;4.47;2.78;;;3.40;99.90;;;;;;5033168;28;20026;-73
2023/10/17 00:14:25;;;;;;;4.90;2.45;;;3.30;99.90;;;;;;5034338;28;20025;-72
2023/10/17 00:16:55;;;;;;;;;;;3.30;99.90;;;;;;5037387;28;20017;-73
2023/10/17 00:19:31;;;;;;;3.40;2.13;;;3.30;99.90;;;;;;5037106;28;19905;-72
2023/10/17 00:22:03;;;;;;;7.57;2.30;;;3.20;99.90;;;;;;5037101;28;20105;-73
2023/10/17 00:24:29;;;;;;;4.05;2.17;;;3.20;99.90;;;;;;5037207;28;20049;-73
2023/10/17 00:26:55;;;;;;;4.22;2.22;;;3.20;99.90;;;;;;5037295;28;20029;-73
2023/10/17 00:29:22;;;;;;;5.05;2.70;;;3.10;99.90;;;;;;5036772;28;20021;-72
2023/10/17 00:31:47;;;;;;;5.53;3.03;;;3.00;99.90;;;;;;5019210;28;20079;-73
2023/10/17 00:34:14;;;;;;;6.15;2.55;;;3.00;99.90;;;;;;5036860;28;20104;-72
2023/10/17 00:37:47;;;;;;;5.00;2.42;;;2.90;99.90;;;;;;5037372;28;20021;-73
2023/10/17 00:39:37;;;;;;;5.78;2.85;;;2.90;99.90;;;;;;5019255;28;20048;-73
2023/10/17 00:44:37;;;;;;;4.00;2.10;;;2.80;99.90;;;;;;5036683;28;20068;-73
2023/10/17 00:47:05;;;;;;;3.38;2.22;;;2.80;99.90;;;;;;5036739;28;20029;-73
2023/10/17 00:49:50;;;;;;;3.92;2.03;;;2.80;99.90;;;;;;5036785;28;20030;-72
2023/10/17 00:52:32;;;;;;;4.20;2.10;;;2.80;99.90;;;;;;5036648;28;20021;-72
2023/10/17 00:54:59;;;;;;;4.30;2.42;;;2.80;99.90;;;;;;5036787;28;20029;-73
2023/10/17 00:57:28;;;;;;;5.93;2.78;;;2.80;99.90;;;;;;5036467;28;20527;-73
2023/10/17 01:00:08;;;;;;;5.13;2.60;;;2.80;99.90;;;;;;5036176;28;20392;-72
2023/10/17 01:02:44;;;;;;;4.47;2.80;;;2.80;99.90;;;;;;5036558;28;20075;-73
2023/10/17 01:05:12;;;;;;;4.22;2.20;;;2.80;99.90;;;;;;4988847;28;20029;-73
2023/10/17 01:07:40;;;;;;;3.85;2.22;;;2.80;99.90;;;;;;5036220;28;20044;-72
2023/10/17 01:10:16;;;;;;;4.72;2.20;;;2.80;99.90;;;;;;5036109;28;20021;-73
2023/10/17 01:12:52;;;;;;;3.42;2.20;;;2.70;99.90;;;;;;5036377;28;20021;-73
2023/10/17 01:15:22;;;;;;;4.93;2.22;;;2.70;99.90;;;;;;5036041;28;20023;-73
2023/10/17 01:17:48;;;;;;;4.40;2.33;;;2.70;99.90;;;;;;5036106;28;20413;-73
2023/10/17 01:20:19;;;;;;;5.03;2.17;;;2.70;99.90;;;;;;5036245;28;20029;-73
2023/10/17 01:22:45;;;;;;;5.55;2.50;;;2.70;99.90;;;;;;5036241;28;20084;-73
2023/10/17 01:25:26;;;;;;;4.93;2.63;;;2.70;99.90;;;;;;5035905;28;20476;-73
2023/10/17 01:27:54;;;;;;;5.95;2.05;;;2.70;99.90;;;;;;5035576;28;20056;-73
2023/10/17 01:30:20;;;;;;;4.47;2.00;;;2.70;99.90;;;;;;5035902;28;20501;-72
2023/10/17 01:32:49;;;;;;;3.03;1.95;;;2.70;99.90;;;;;;5035830;28;20393;-73
2023/10/17 01:35:19;;;;;;;4.05;2.40;;;2.70;99.90;;;;;;5035631;28;20033;-73
2023/10/17 01:37:48;;;;;;;4.60;1.83;;;2.70;99.90;;;;;;5036052;28;20026;-73
2023/10/17 01:40:27;;;;;;;5.70;2.40;;;2.60;99.90;;;;;;5035591;28;20482;-73
2023/10/17 01:42:54;;;;;;;4.95;2.20;;;2.60;99.90;;;;;;5035565;28;20553;-72
2023/10/17 01:45:25;;;;;;;4.40;1.98;;;2.60;99.90;;;;;;5035549;28;20025;-72
2023/10/17 01:47:54;;;;;;;5.10;2.20;;;2.50;99.90;;;;;;5035874;28;20018;-73
2023/10/17 01:50:20;;;;;;;4.80;2.45;;;2.50;99.90;;;;;;5018236;28;20478;-73
2023/10/17 01:52:47;;;;;;;5.20;3.10;;;2.50;99.90;;;;;;5035441;28;20060;-72
2023/10/17 01:55:16;;;;;;;6.40;3.58;;;2.50;99.90;;;;;;5035371;28;20029;-73
2023/10/17 01:57:44;;;;;;;6.22;3.17;;;2.50;99.90;;;;;;5017559;28;20040;-73
2023/10/17 02:00:17;;;;;;;5.10;2.67;;;2.50;99.90;;;;;;5035124;28;20061;-73
2023/10/17 02:02:43;;;;;;;4.88;2.38;;;2.50;99.90;;;;;;5017466;28;20087;-73
2023/10/17 02:05:12;;;;;;;8.43;4.60;;;2.50;99.90;;;;;;5035466;28;20117;-73
2023/10/17 02:07:38;;;;;;;10.30;4.65;;;2.50;99.90;;;;;;5035175;28;20049;-73
2023/10/17 02:10:07;;;;;;;8.18;4.10;;;2.40;99.90;;;;;;5035040;28;20029;-72
2023/10/17 02:12:33;;;;;;;4.97;2.75;;;2.40;99.90;;;;;;5035081;28;20036;-73
2023/10/17 02:15:00;;;;;;;4.97;2.50;;;2.40;99.90;;;;;;5034835;28;20033;-72
2023/10/17 02:17:26;;;;;;;5.00;2.42;;;2.40;99.90;;;;;;5034982;28;20041;-73
2023/10/17 02:19:53;;;;;;;6.85;3.47;;;2.40;99.90;;;;;;5035057;28;20029;-73
2023/10/17 02:22:19;;;;;;;5.63;3.10;;;2.40;99.90;;;;;;5034800;28;20052;-73
2023/10/17 02:24:45;;;;;;;5.85;2.47;;;2.40;99.90;;;;;;5034759;28;20033;-73
2023/10/17 02:27:13;;;;;;;5.75;3.80;;;2.40;99.90;;;;;;5017162;28;20029;-73
2023/10/17 02:29:41;;;;;;;7.18;3.47;;;2.40;99.90;;;;;;5034595;28;20065;-72
2023/10/17 02:32:13;;;;;;;5.88;3.35;;;2.40;99.90;;;;;;5034418;28;20112;-72
2023/10/17 02:34:43;;;;;;;5.45;3.20;;;2.40;99.90;;;;;;5034952;28;20572;-73
2023/10/17 02:37:16;;;;;;;4.75;2.63;;;2.40;99.90;;;;;;5034400;28;20489;-73
2023/10/17 02:39:42;;;;;;;4.53;2.65;;;2.40;99.90;;;;;;5034596;28;20072;-73
2023/10/17 02:42:08;;;;;;;4.97;2.72;;;2.30;99.90;;;;;;5034983;28;20377;-73
2023/10/17 02:44:34;;;;;;;5.07;2.15;;;2.40;99.90;;;;;;5034472;28;20477;-73
2023/10/17 02:47:01;;;;;;;5.07;1.90;;;2.30;99.90;;;;;;5034467;28;20036;-73
2023/10/17 02:49:36;;;;;;;4.00;2.20;;;2.30;99.90;;;;;;5034293;28;20470;-73
2023/10/17 02:52:02;;;;;;;4.50;2.10;;;2.30;99.90;;;;;;5034319;28;20155;-73
2023/10/17 02:54:28;;;;;;;3.47;1.90;;;2.30;99.90;;;;;;5034280;28;20068;-73
2023/10/17 02:56:54;;;;;;;3.83;2.10;;;2.20;99.90;;;;;;5034246;28;20057;-73
2023/10/17 02:59:28;;;;;;;5.88;2.25;;;2.20;99.90;;;;;;5064882;28;20502;-73
2023/10/17 03:01:54;;;;;;;3.72;2.33;;;2.20;99.90;;;;;;5050450;28;20026;-73
2023/10/17 03:04:23;;;;;;;4.30;2.13;;;2.10;99.90;;;;;;5050570;28;20052;-73
2023/10/17 03:06:56;;;;;;;3.70;2.17;;;2.00;99.90;;;;;;5050638;28;20025;-74
2023/10/17 03:12:10;;;;;;;5.45;2.40;;;2.00;99.90;;;;;;5050914;28;20056;-74
2023/10/17 03:17:12;;;;;;;3.58;2.20;;;2.00;99.90;;;;;;5050225;28;20033;-73
2023/10/17 03:19:38;;;;;;;5.90;2.58;;;2.00;99.90;;;;;;5050393;28;20385;-73
2023/10/17 03:22:19;;;;;;;5.32;2.40;;;2.00;99.90;;;;;;5050440;28;20112;-74
2023/10/17 03:24:46;;;;;;;5.40;2.42;;;2.00;99.90;;;;;;5050544;28;20469;-72
2023/10/17 03:27:23;;;;;;;5.80;2.30;;;2.00;99.90;;;;;;5050390;28;20071;-74
2023/10/17 03:29:50;;;;;;;4.32;2.10;;;1.90;99.90;;;;;;5047595;28;20033;-73
2023/10/17 03:32:16;;;;;;;3.97;2.17;;;1.80;99.90;;;;;;5049816;28;20033;-73
2023/10/17 03:34:45;;;;;;;4.97;2.30;;;1.80;99.90;;;;;;5048474;28;20020;-72
2023/10/17 03:39:53;;;;;;;5.30;2.30;;;1.80;99.90;;;;;;5049053;28;20030;-73
2023/10/17 03:45:13;;;;;;;3.58;2.08;;;1.80;99.90;;;;;;5050163;28;20049;-73
2023/10/17 03:47:53;;;;;;;4.45;2.38;;;1.80;99.90;;;;;;5049776;28;20033;-73
2023/10/17 03:50:34;;;;;;;4.85;2.15;;;1.80;99.90;;;;;;5049936;28;20026;-73
2023/10/17 03:53:42;;;;;;;3.90;2.25;;;1.80;99.90;;;;;;5048688;28;20021;-72
2023/10/17 03:55:55;;;;;;;3.83;2.05;;;1.80;99.90;;;;;;5049926;28;20042;-72
2023/10/17 04:00:51;;;;;;;5.93;2.33;;;1.60;99.90;;;;;;5049026;28;20013;-72
2023/10/17 04:03:21;;;;;;;4.05;2.22;;;1.60;99.90;;;;;;5049493;28;20039;-72
2023/10/17 04:08:38;;;;;;;5.15;2.55;;;1.60;99.90;;;;;;5048920;28;20256;-72
2023/10/17 04:11:25;;;;;;;4.30;2.22;;;1.60;99.90;;;;;;5035327;28;20389;-72
2023/10/17 04:14:01;;;;;;;4.72;2.33;;;1.60;99.90;;;;;;5031960;28;20021;-72
2023/10/17 04:16:33;;;;;;;4.97;2.67;;;1.50;99.90;;;;;;5035734;28;20021;-72
2023/10/17 04:19:07;;;;;;;4.35;2.40;;;1.50;99.90;;;;;;5035786;28;20065;-72
2023/10/17 04:21:45;;;;;;;4.47;2.17;;;1.40;99.90;;;;;;5035787;28;20018;-72
2023/10/17 04:24:10;;;;;;;4.43;2.05;;;1.40;99.90;;;;;;5029413;28;20048;-72
2023/10/17 04:26:42;;;;;;;3.85;2.40;;;1.40;99.90;;;;;;5035439;28;20481;-72
2023/10/17 04:29:17;;;;;;;4.15;2.35;;;1.40;99.90;;;;;;5035497;28;20026;-72
2023/10/17 04:31:45;;;;;;;6.60;2.22;;;1.40;99.90;;;;;;5035388;28;20029;-72
2023/10/17 04:34:26;;;;;;;6.00;2.47;;;1.40;99.90;;;;;;5035483;28;20021;-72
2023/10/17 04:36:53;;;;;;;6.18;2.83;;;1.40;99.90;;;;;;5035549;28;20025;-72
2023/10/17 04:39:19;;;;;;;5.15;2.70;;;1.40;99.90;;;;;;5035319;28;20125;-72
2023/10/17 04:44:17;;;;;;;5.00;2.35;;;1.40;99.90;;;;;;5029649;28;20386;-72
2023/10/17 04:49:36;;;;;;;3.95;2.35;;;1.30;99.90;;;;;;5035312;28;20018;-73
2023/10/17 04:52:06;;;;;;;5.28;2.50;;;1.10;99.90;;;;;;5025350;28;20104;-73
2023/10/17 04:57:09;;;;;;;7.45;2.30;;;0.90;99.90;;;;;;5033874;28;20025;-73
2023/10/17 06:18:27;;;;;;;6.53;3.20;;;1.20;99.90;;;;;;5034042;28;20103;-73
2023/10/17 06:30:05;;;;;;;5.25;3.40;;;1.30;99.90;;;;;;5033877;28;20022;-73
2023/10/17 06:31:53;;;;;;;6.22;3.17;;;1.30;99.90;;;;;;5033244;28;20120;-73
2023/10/17 06:34:22;;;;;;;6.30;3.15;;;1.30;99.90;;;;;;5033562;28;20120;-73
2023/10/17 06:37:01;;;;;;;4.75;3.13;;;1.30;99.90;;;;;;5033571;28;20531;-73
2023/10/17 06:39:36;;;;;;;5.18;2.92;;;1.40;99.90;;;;;;5033417;28;20025;-73
2023/10/17 06:42:14;;;;;;;6.22;3.22;;;1.40;99.90;;;;;;5033851;28;20469;-73
2023/10/17 06:44:53;;;;;;;7.05;3.30;;;1.50;99.90;;;;;;5033610;28;20531;-73
2023/10/17 06:47:41;;;;;;;5.93;3.25;;;1.60;99.90;;;;;;5033410;28;20049;-73
2023/10/17 06:55:29;;;;;;;6.80;3.45;;;1.70;99.90;;;;;;5033437;28;20025;-73
2023/10/17 06:58:09;;;;;;;7.72;3.63;;;1.70;99.90;;;;;;5033187;28;20037;-73
2023/10/17 07:00:49;;;;;;;5.80;3.25;;;1.80;99.90;;;;;;5033279;28;20037;-73
2023/10/17 07:03:15;;;;;;;8.45;3.60;;;1.80;99.90;;;;;;5033321;28;20075;-73
2023/10/17 07:05:49;;;;;;;5.20;3.30;;;1.80;99.90;;;;;;5033511;28;20044;-73
2023/10/17 07:08:19;;;;;;;5.55;3.15;;;1.90;99.90;;;;;;5033598;28;20024;-73
2023/10/17 07:11:09;;;;;;;8.68;3.50;;;1.90;99.90;;;;;;5033263;28;20030;-73
2023/10/17 07:16:41;;;;;;;10.88;3.78;;;2.00;99.90;;;;;;5033260;28;20061;-73
2023/10/17 07:22:15;;;;;;;9.35;3.33;;;2.20;99.90;;;;;;5033192;28;20022;-73
2023/10/17 07:24:48;;;;;;;5.85;3.05;;;2.20;99.90;;;;;;5032869;28;20045;-73
2023/10/17 07:27:33;;;;;;;7.50;2.97;;;2.30;99.90;;;;;;5033107;28;20028;-73
2023/10/17 07:30:27;;;;;;;7.80;3.33;;;2.40;99.90;;;;;;5033069;28;20022;-74
2023/10/17 07:32:56;;;;;;;14.02;3.30;;;2.40;99.90;;;;;;5032817;28;20087;-74
2023/10/17 07:35:25;;;;;;;6.90;3.17;;;2.50;99.90;;;;;;5032946;28;20405;-73
2023/10/17 07:37:54;;;;;;;4.43;2.75;;;2.60;99.90;;;;;;5033427;28;20026;-74
2023/10/17 07:40:31;;;;;;;6.75;3.30;;;2.60;99.90;;;;;;5033158;28;20029;-74
2023/10/17 07:43:00;;;;;;;6.97;3.20;;;2.70;99.90;;;;;;5033310;28;20049;-74
2023/10/17 07:45:38;;;;;;;5.15;3.10;;;2.80;99.90;;;;;;5035260;28;20493;-74
2023/10/17 07:48:19;;;;;;;8.65;3.60;;;2.80;99.90;;;;;;5036470;28;20440;-73
2023/10/17 07:50:46;;;;;;;;;;;2.90;99.90;;;;;;5037015;28;20029;-73
2023/10/17 07:53:11;;;;;;;7.45;3.28;;;3.00;99.90;;;;;;5036524;28;19905;-74
2023/10/17 07:55:38;;;;;;;6.70;3.30;;;3.10;99.90;;;;;;5036528;28;20029;-74
2023/10/17 07:58:07;;;;;;;6.80;3.72;;;3.10;99.90;;;;;;5036247;28;20037;-74
2023/10/17 08:00:33;;;;;;;8.07;3.97;;;3.20;99.90;;;;;;5036314;28;20017;-74
2023/10/17 08:03:20;;;;;;;6.93;3.63;;;3.30;99.90;;;;;;5036076;28;20049;-73
2023/10/17 08:08:33;;;;;;;4.88;3.08;;;3.50;99.90;;;;;;5036545;28;20034;-74
2023/10/17 08:11:00;;;;;;;6.47;3.55;;;3.60;99.90;;;;;;5035360;28;20489;-74
2023/10/17 08:13:28;;;;;;;6.22;3.67;;;3.60;99.90;;;;;;5036732;28;20031;-74
2023/10/17 08:16:05;;;;;;;5.72;3.20;;;3.70;99.90;;;;;;5036139;28;20064;-74
2023/10/17 08:18:39;;;;;;;7.75;3.83;;;3.80;99.90;;;;;;5036535;28;20060;-74
2023/10/17 08:23:50;;;;;;;8.52;3.45;;;4.00;99.90;;;;;;5036574;28;20040;-74
2023/10/17 08:26:20;;;;;;;9.38;3.63;;;4.10;99.90;;;;;;5034705;28;20033;-74
2023/10/17 08:28:46;;;;;;;4.85;2.78;;;4.20;99.90;;;;;;5035759;28;20036;-74
2023/10/17 08:36:53;;;;;;;4.68;2.67;;;4.50;99.90;;;;;;5035797;28;20033;-74
2023/10/17 08:41:57;;;;;;;5.55;2.80;;;4.60;99.90;;;;;;5035750;28;20014;-74
2023/10/17 08:44:29;;;;;;;5.22;3.05;;;4.70;99.90;;;;;;5035614;28;20495;-74
2023/10/17 08:46:55;;;;;;;7.40;3.75;;;4.80;99.90;;;;;;5035355;28;20029;-74
2023/10/17 08:49:21;;;;;;;7.35;3.97;;;4.90;99.90;;;;;;5035466;28;20025;-74
2023/10/17 08:51:50;;;;;;;8.40;4.13;;;4.90;99.90;;;;;;5035974;28;20576;-74
2023/10/17 08:54:19;;;;;;;7.78;4.32;;;5.00;99.90;;;;;;5035426;28;20045;-74
2023/10/17 08:56:47;;;;;;;5.93;3.95;;;5.10;99.90;;;;;;5034116;28;20036;-74
2023/10/17 08:59:29;;;;;;;8.90;4.00;;;5.20;99.90;;;;;;5034971;28;20029;-74
2023/10/17 09:02:17;;;;;;;7.00;4.60;;;5.30;99.90;;;;;;5035098;28;20466;-73
2023/10/17 09:04:43;;;;;;;7.03;4.50;;;5.50;99.90;;;;;;5035397;28;20022;-74
2023/10/17 09:07:18;;;;;;;9.77;5.43;;;5.60;99.90;;;;;;5033885;28;20547;-74
2023/10/17 09:09:54;;;;;;;8.52;5.32;;;5.60;99.90;;;;;;5035418;28;20053;-75
2023/10/17 09:12:26;;;;;;;10.75;5.85;;;5.70;99.90;;;;;;5035126;28;20054;-75
2023/10/17 09:14:56;;;;;;;8.52;5.22;;;5.80;99.90;;;;;;5035188;28;20033;-75
2023/10/17 09:19:52;;;;;;;8.43;4.78;;;6.00;99.90;;;;;;5034804;28;20507;-75
2023/10/17 09:22:40;;;;;;;12.90;4.43;;;6.10;99.90;;;;;;5034908;28;20049;-75
2023/10/17 09:25:26;;;;;;;10.57;4.47;;;6.20;99.90;;;;;;5033871;28;20032;-75
2023/10/17 09:27:53;;;;;;;8.82;4.40;;;6.30;99.90;;;;;;5034840;28;20481;-75
2023/10/17 09:30:19;;;;;;;9.10;4.85;;;6.40;99.90;;;;;;5034747;28;20032;-75
2023/10/17 09:32:46;;;;;;;7.22;4.53;;;6.50;99.90;;;;;;5033437;28;20029;-75
2023/10/17 09:35:14;;;;;;;8.63;5.30;;;6.50;99.90;;;;;;5034632;28;20033;-75
2023/10/17 09:37:50;;;;;;;7.15;5.05;;;6.60;99.90;;;;;;5034538;28;20164;-75
2023/10/17 09:40:33;;;;;;;6.63;4.28;;;6.70;99.90;;;;;;5034587;28;20021;-75
2023/10/17 09:43:00;;;;;;;8.98;4.88;;;6.70;99.90;;;;;;5034823;28;20036;-75
2023/10/17 09:45:33;;;;;;;8.70;4.65;;;6.80;99.90;;;;;;5034735;28;20409;-74
2023/10/17 09:48:04;;;;;;;5.95;3.67;;;6.80;99.90;;;;;;5034368;28;20022;-74
2023/10/17 09:50:34;;;;;;;7.28;4.47;;;6.90;99.90;;;;;;5034273;28;20032;-75
2023/10/17 09:53:12;;;;;;;7.40;4.35;;;6.90;99.90;;;;;;5034536;28;20108;-75
2023/10/17 09:55:44;;;;;;;7.05;3.97;;;7.00;99.90;;;;;;5034290;28;20025;-75
2023/10/17 09:58:10;;;;;;;8.38;4.15;;;7.10;99.90;;;;;;5034197;28;20421;-75
2023/10/17 10:01:00;;;;;;;7.70;4.55;;;7.10;99.90;;;;;;5034047;28;20022;-75
2023/10/17 10:03:28;;;;;;;7.55;4.20;;;7.20;99.90;;;;;;5034045;28;20389;-74
2023/10/17 10:05:54;;;;;;;6.20;4.25;;;7.30;99.90;;;;;;5034211;28;20416;-75
2023/10/17 10:08:32;;;;;;;7.38;4.05;;;7.30;99.90;;;;;;5033556;28;20030;-75
2023/10/17 10:10:59;;;;;;;8.27;4.53;;;7.40;99.90;;;;;;5032767;28;20052;-74
2023/10/17 10:13:26;;;;;;;7.13;4.18;;;7.50;99.90;;;;;;5032948;28;20029;-74
2023/10/17 10:15:58;;;;;;;7.90;4.00;;;7.60;99.90;;;;;;5032716;28;20029;-74
2023/10/17 10:18:36;;;;;;;6.07;3.67;;;7.70;99.90;;;;;;5033609;28;20477;-74
2023/10/17 10:21:07;;;;;;;6.65;3.42;;;7.80;99.90;;;;;;5033803;28;20014;-73
2023/10/17 10:23:40;;;;;;;;;;;7.90;99.90;;;;;;5034267;28;20017;-74
2023/10/17 10:26:11;;;;;;;6.88;3.45;;;8.00;99.90;;;;;;5033799;28;20399;-75
2023/10/17 10:28:38;;;;;;;5.53;3.47;;;8.10;99.90;;;;;;5033918;28;20044;-75
2023/10/17 10:31:22;;;;;;;5.82;3.30;;;8.10;99.90;;;;;;5033473;28;20030;-74
2023/10/17 10:33:49;;;;;;;5.60;3.47;;;8.20;99.90;;;;;;5033415;28;20033;-74
2023/10/17 10:36:16;;;;;;;4.78;3.00;;;8.20;99.90;;;;;;5033628;28;20439;-75
2023/10/17 10:38:42;;;;;;;8.57;3.03;;;8.30;99.90;;;;;;5033384;28;20025;-74
2023/10/17 10:41:08;;;;;;;6.28;3.30;;;8.40;99.90;;;;;;5033718;28;20033;-74
2023/10/17 10:43:34;;;;;;;6.35;3.10;;;8.40;99.90;;;;;;5032184;28;20021;-75
2023/10/17 10:46:01;;;;;;;5.20;2.90;;;8.50;99.90;;;;;;5033735;28;20031;-75
2023/10/17 10:48:26;;;;;;;4.75;2.85;;;8.60;99.90;;;;;;5033318;28;20392;-74
2023/10/17 10:50:56;;;;;;;4.63;2.92;;;8.70;99.90;;;;;;5033829;28;20100;-75
2023/10/17 10:53:29;;;;;;;4.20;2.55;;;8.70;99.90;;;;;;5033392;28;20029;-75
2023/10/17 10:56:02;;;;;;;6.07;3.03;;;8.80;99.90;;;;;;5032145;28;20116;-75
2023/10/17 10:58:30;;;;;;;5.35;3.00;;;8.90;99.90;;;;;;5033095;28;20025;-74
2023/10/17 11:00:58;;;;;;;6.13;2.83;;;9.00;99.90;;;;;;5033342;28;20076;-74
2023/10/17 11:03:25;;;;;;;8.10;2.97;;;9.10;99.90;;;;;;5033060;28;20032;-74
2023/10/17 11:06:04;;;;;;;5.07;3.00;;;9.20;99.90;;;;;;5033646;28;20018;-74
2023/10/17 11:08:37;;;;;;;7.65;3.42;;;9.40;99.90;;;;;;5031896;28;20029;-74
2023/10/17 11:11:03;;;;;;;7.55;2.90;;;9.60;99.90;;;;;;5033206;28;20072;-75
2023/10/17 11:13:41;;;;;;;4.60;2.65;;;9.60;99.90;;;;;;5033446;28;20029;-73
2023/10/17 11:16:07;;;;;;;6.10;3.25;;;9.60;99.90;;;;;;5033156;28;20069;-73
2023/10/17 11:18:38;;;;;;;6.18;2.80;;;9.70;99.90;;;;;;5032727;28;20072;-73
2023/10/17 11:21:10;;;;;;;5.32;3.00;;;9.80;99.90;;;;;;5036735;28;20022;-73
2023/10/17 11:23:50;;;;;;;6.18;2.63;;;9.80;99.90;;;;;;5037199;28;20034;-71
2023/10/17 11:26:19;;;;;;;4.97;2.88;;;9.80;99.90;;;;;;5037140;28;20071;-71
2023/10/17 11:28:52;;;;;;;4.88;2.30;;;9.90;99.90;;;;;;5036939;28;20394;-71
2023/10/17 11:31:22;;;;;;;4.40;2.55;;;9.90;99.90;;;;;;5037463;28;20029;-71
2023/10/17 11:34:12;;;;;;;7.23;2.40;;;9.90;99.90;;;;;;5036756;28;20102;-71
2023/10/17 11:36:48;;;;;;;6.05;2.75;;;10.00;99.90;;;;;;5036944;28;20053;-71
2023/10/17 11:39:20;;;;;;;3.15;1.77;;;10.20;99.90;;;;;;5036679;28;20489;-71
2023/10/17 11:41:52;;;;;;;4.10;1.73;;;10.30;99.90;;;;;;5037122;28;20037;-71
2023/10/17 11:44:23;;;;;;;4.47;1.95;;;10.40;99.90;;;;;;5036784;28;20083;-70
2023/10/17 11:46:58;;;;;;;4.60;2.50;;;10.40;99.90;;;;;;5035394;28;20026;-71
2023/10/17 11:49:27;;;;;;;6.97;2.88;;;10.50;99.90;;;;;;5036655;28;20040;-70
2023/10/17 11:52:10;;;;;;;5.45;3.03;;;10.60;99.90;;;;;;5036553;28;20484;-71
2023/10/17 11:54:56;;;;;;;6.68;2.88;;;10.70;99.90;;;;;;5036892;28;20034;-71
2023/10/17 11:57:25;;;;;;;4.72;3.03;;;10.90;99.90;;;;;;5036271;28;20034;-71
2023/10/17 11:59:58;;;;;;;6.75;2.90;;;11.00;99.90;;;;;;5036525;28;20408;-71
2023/10/17 12:02:24;;;;;;;6.03;2.22;;;11.10;99.90;;;;;;5036170;28;20018;-71
2023/10/17 12:04:50;;;;;;;6.85;2.40;;;11.10;99.90;;;;;;5036597;28;20377;-71
2023/10/17 12:07:16;;;;;;;5.50;2.63;;;11.30;99.90;;;;;;5035074;28;20037;-70
2023/10/17 12:09:41;;;;;;;4.47;2.17;;;11.40;99.90;;;;;;5036189;28;20026;-71
2023/10/17 12:12:07;;;;;;;3.83;2.15;;;11.50;99.90;;;;;;5036237;28;20029;-70
2023/10/17 12:14:36;;;;;;;4.13;2.30;;;11.60;99.90;;;;;;5036157;28;20065;-70
2023/10/17 12:17:02;;;;;;;5.80;2.50;;;11.70;99.90;;;;;;5035996;28;20025;-71
2023/10/17 12:19:28;;;;;;;3.95;2.10;;;11.70;99.90;;;;;;5036130;28;20026;-72
2023/10/17 12:21:55;;;;;;;3.85;2.10;;;11.80;99.90;;;;;;5036508;28;20104;-69
2023/10/17 12:24:28;;;;;;;5.97;2.50;;;11.90;99.90;;;;;;5036131;28;20025;-69
2023/10/17 12:26:55;;;;;;;5.93;2.85;;;12.00;99.90;;;;;;5036291;28;20017;-69
2023/10/17 12:29:25;;;;;;;5.32;2.85;;;12.10;99.90;;;;;;5036170;28;20033;-70
2023/10/17 12:31:55;;;;;;;6.32;2.83;;;12.20;99.90;;;;;;5035409;28;20025;-70
2023/10/17 12:34:21;;;;;;;5.45;2.88;;;12.30;99.90;;;;;;5036139;28;20021;-69
2023/10/17 12:36:48;;;;;;;6.57;3.25;;;12.40;99.90;;;;;;5035797;28;20026;-69
2023/10/17 12:39:16;;;;;;;6.45;3.13;;;12.50;99.90;;;;;;5035589;28;20049;-70
2023/10/17 12:41:43;;;;;;;5.88;2.65;;;12.50;99.80;;;;;;5035699;28;20014;-69
2023/10/17 12:44:09;;;;;;;4.80;2.60;;;12.60;99.90;;;;;;5035628;28;20030;-69
2023/10/17 12:46:35;;;;;;;4.63;2.70;;;12.70;99.90;;;;;;5035571;28;20363;-69
2023/10/17 12:49:01;;;;;;;4.90;2.45;;;12.70;99.90;;;;;;5035215;28;20112;-70
2023/10/17 12:51:27;;;;;;;3.67;2.08;;;12.80;99.30;;;;;;5035577;28;20104;-70
2023/10/17 12:53:54;;;;;;;6.28;2.50;;;12.90;99.20;;;;;;5035464;28;20469;-70
2023/10/17 12:56:20;;;;;;;5.15;2.83;;;12.90;99.50;;;;;;5035414;28;20413;-70
2023/10/17 12:58:46;;;;;;;4.90;2.60;;;13.00;99.20;;;;;;5035130;28;20112;-70
2023/10/17 13:01:12;;;;;;;4.28;2.08;;;13.00;98.90;;;;;;5035631;28;20026;-72
2023/10/17 13:03:38;;;;;;;4.68;2.65;;;13.10;98.50;;;;;;5034103;28;20032;-69
2023/10/17 13:06:05;;;;;;;7.28;3.70;;;13.20;98.80;;;;;;5035217;28;20025;-70
2023/10/17 13:08:31;;;;;;;5.78;3.40;;;13.10;98.20;;;;;;5035137;28;20541;-69
2023/10/17 13:10:57;;;;;;;6.85;2.97;;;13.20;98.60;;;;;;5035111;28;20044;-68
2023/10/17 13:13:24;;;;;;;5.88;3.15;;;13.20;98.80;;;;;;5035624;28;20034;-69
2023/10/17 13:15:50;;;;;;;4.57;2.58;;;13.30;98.30;;;;;;5034952;28;20037;-69
2023/10/17 13:18:16;;;;;;;4.95;2.83;;;13.30;98.10;;;;;;5033437;28;20120;-69
2023/10/17 13:20:53;;;;;;;8.90;3.15;;;13.30;97.90;;;;;;5034879;28;20104;-69
2023/10/17 13:23:20;;;;;;;5.95;3.20;;;13.30;98.10;;;;;;5035219;28;20030;-69
2023/10/17 13:25:46;;;;;;;5.45;2.75;;;13.40;97.30;;;;;;5034872;28;20072;-69
2023/10/17 13:28:12;;;;;;;3.42;2.30;;;13.40;97.00;;;;;;5033532;28;20025;-69
2023/10/17 13:30:38;;;;;;;6.55;2.85;;;13.40;96.70;;;;;;5034632;28;20029;-69
2023/10/17 13:33:06;;;;;;;5.70;2.88;;;13.40;96.70;;;;;;5034511;28;20094;-69
2023/10/17 13:35:37;;;;;;;5.72;4.00;;;13.40;96.70;;;;;;5035117;28;20382;-68
2023/10/17 13:38:03;;;;;;;5.30;2.53;;;13.40;96.50;;;;;;5033061;28;20036;-68
2023/10/17 13:40:32;;;;;;;4.47;2.75;;;13.40;96.80;;;;;;5034473;28;20180;-68
2023/10/17 13:43:00;;;;;;;3.45;2.28;;;13.50;98.10;;;;;;5034143;28;20021;-69
2023/10/17 13:45:27;;;;;;;4.22;2.10;;;13.50;97.80;;;;;;5034710;28;20104;-69
2023/10/17 13:47:54;;;;;;;5.35;2.72;;;13.60;97.60;;;;;;5034083;28;20393;-69
2023/10/17 13:50:21;;;;;;;4.70;2.53;;;13.50;95.50;;;;;;5034402;28;20462;-70
2023/10/17 13:52:52;;;;;;;4.72;1.98;;;13.50;96.50;;;;;;5034598;28;20030;-70
2023/10/17 13:55:27;;;;;;;6.38;2.15;;;13.50;97.10;;;;;;5034597;28;20474;-70
2023/10/17 13:57:55;;;;;;;4.00;1.80;;;13.40;97.20;;;;;;5034023;28;20057;-70
2023/10/17 14:00:22;;;;;;;5.20;2.20;;;13.40;97.60;;;;;;5032699;28;20075;-70
2023/10/17 14:02:49;;;;;;;3.90;1.90;;;13.40;97.10;;;;;;5033857;28;20473;-70
2023/10/17 14:05:17;;;;;;;3.33;1.73;;;13.40;97.60;;;;;;5034344;28;20052;-70
2023/10/17 14:07:43;;;;;;;3.85;1.48;;;13.40;97.90;;;;;;5034059;28;20029;-70
2023/10/17 14:10:11;;;;;;;3.33;1.50;;;13.40;98.10;;;;;;5033957;28;20493;-70
2023/10/17 14:12:40;;;;;;;3.92;1.75;;;13.40;98.30;;;;;;5034040;28;20547;-70
2023/10/17 14:15:07;;;;;;;2.85;1.55;;;13.40;98.40;;;;;;5034015;28;20424;-70
2023/10/17 14:17:33;;;;;;;3.78;1.63;;;13.40;98.60;;;;;;5033758;28;20061;-70
2023/10/17 14:20:16;;;;;;;3.92;1.83;;;13.40;99.00;;;;;;5033763;28;20053;-70
2023/10/17 14:22:56;;;;;;;4.95;1.80;;;13.40;98.40;;;;;;5034371;28;20031;-70
2023/10/17 14:26:00;;;;;;;3.20;1.98;;;13.40;98.80;;;;;;5034339;28;20018;-70
2023/10/17 14:28:08;;;;;;;4.50;2.08;;;13.50;98.60;;;;;;5033561;28;20113;-70
2023/10/17 14:30:39;;;;;;;3.15;1.70;;;13.50;98.30;;;;;;5033582;28;20390;-70
2023/10/17 14:33:05;;;;;;;2.83;1.83;;;13.50;98.10;;;;;;5033889;28;20492;-70
2023/10/17 14:35:33;;;;;;;5.18;1.90;;;13.50;98.30;;;;;;5033579;28;20091;-70
2023/10/17 14:38:00;;;;;;;5.65;1.95;;;13.50;97.80;;;;;;5033510;28;20094;-70
2023/10/17 14:40:30;;;;;;;10.35;3.63;;;13.40;97.90;;;;;;5034406;28;20029;-70
2023/10/17 14:42:56;;;;;;;12.73;4.22;;;13.40;98.90;;;;;;5033827;28;20025;-70
2023/10/17 14:45:24;;;;;;;12.15;4.80;;;13.30;99.30;;;;;;5033447;28;20167;-70
2023/10/17 14:47:55;;;;;;;10.60;3.55;;;13.20;99.90;;;;;;5033184;28;20038;-70
2023/10/17 14:50:20;;;;;;;8.82;3.08;;;13.20;99.90;;;;;;5033375;28;20022;-70
2023/10/17 14:52:46;;;;;;;6.18;2.50;;;13.20;99.90;;;;;;5033332;28;20044;-70
2023/10/17 14:55:23;;;;;;;8.02;2.58;;;13.10;99.20;;;;;;5033184;28;20026;-70
2023/10/17 14:57:49;;;;;;;10.43;2.65;;;13.10;99.30;;;;;;5033226;28;20064;-70
2023/10/17 15:00:15;;;;;;;11.25;3.25;;;13.00;99.50;;;;;;5033162;28;20057;-70
2023/10/17 15:02:44;;;;;;;6.35;2.40;;;12.90;99.90;;;;;;5033608;28;20044;-70
2023/10/17 15:05:13;;;;;;;7.45;2.47;;;12.90;99.90;;;;;;5033230;28;20029;-70
2023/10/17 15:07:39;;;;;;;6.85;2.42;;;12.90;99.90;;;;;;5033197;28;20025;-70
2023/10/17 15:10:13;;;;;;;4.40;1.88;;;12.90;99.90;;;;;;5033256;28;20022;-70
2023/10/17 15:12:43;;;;;;;4.57;1.95;;;12.90;99.90;;;;;;5033229;28;20025;-70
2023/10/17 15:15:14;;;;;;;7.05;2.85;;;12.90;99.90;;;;;;5033117;28;20104;-70
2023/10/17 15:17:41;;;;;;;6.38;3.55;;;12.90;99.90;;;;;;5032865;28;20474;-70
2023/10/17 15:20:14;;;;;;;9.10;4.47;;;12.80;99.90;;;;;;5031750;28;20104;-70
2023/10/17 15:22:43;;;;;;;12.57;5.68;;;12.80;99.90;;;;;;5033103;28;20083;-70
2023/10/17 15:25:12;;;;;;;10.63;6.07;;;12.70;99.90;;;;;;5033020;28;20506;-70
2023/10/17 15:27:39;;;;;;;12.15;6.25;;;12.60;99.90;;;;;;5033034;28;20041;-70
2023/10/17 15:30:05;;;;;;;11.02;5.50;;;12.60;99.90;;;;;;5032960;28;20056;-70
2023/10/17 15:32:31;;;;;;;6.40;3.70;;;12.60;99.90;;;;;;5032720;28;20108;-70
2023/10/17 15:34:57;;;;;;;6.45;3.10;;;12.40;99.90;;;;;;5032916;28;20105;-70
2023/10/17 15:37:24;;;;;;;5.53;2.72;;;12.40;99.90;;;;;;5025742;28;20030;-70